sensor_id;sensor_type;location;lat;lon;timestamp;P1;durP1;ratioP1;P2;durP2;ratioP2
7813;SDS011;3952;48.364;16.022;2022-10-16T00:01:33;41.73;;;31.83;;
7813;SDS011;3952;48.364;16.022;2022-10-16T00:04:01;45.70;;;32.30;;
7813;SDS011;3952;48.364;16.022;2022-10-16T00:06:29;47.17;;;31.07;;
7813;SDS011;3952;48.364;16.022;2022-10-16T00:08:57;33.07;;;28.57;;
7813;SDS011;3952;48.364;16.022;2022-10-16T00:11:26;39.97;;;30.33;;
7813;SDS011;3952;48.364;16.022;2022-10-16T00:13:56;41.50;;;27.63;;
7813;SDS011;3952;48.364;16.022;2022-10-16T00:16:24;33.63;;;25.30;;
7813;SDS011;3952;48.364;16.022;2022-10-16T00:18:52;25.00;;;22.37;;
7813;SDS011;3952;48.364;16.022;2022-10-16T00:21:21;25.80;;;23.23;;
7813;SDS011;3952;48.364;16.022;2022-10-16T00:23:50;25.93;;;23.33;;
7813;SDS011;3952;48.364;16.022;2022-10-16T00:26:18;24.63;;;22.30;;
7813;SDS011;3952;48.364;16.022;2022-10-16T00:28:47;22.80;;;20.80;;
7813;SDS011;3952;48.364;16.022;2022-10-16T00:31:15;25.93;;;23.57;;
7813;SDS011;3952;48.364;16.022;2022-10-16T00:33:44;24.43;;;22.03;;
7813;SDS011;3952;48.364;16.022;2022-10-16T00:36:12;30.00;;;23.70;;
7813;SDS011;3952;48.364;16.022;2022-10-16T00:38:41;54.80;;;25.20;;
7813;SDS011;3952;48.364;16.022;2022-10-16T00:41:09;44.77;;;25.97;;
7813;SDS011;3952;48.364;16.022;2022-10-16T00:43:41;26.30;;;23.47;;
7813;SDS011;3952;48.364;16.022;2022-10-16T00:46:13;40.07;;;24.97;;
7813;SDS011;3952;48.364;16.022;2022-10-16T00:48:43;26.97;;;23.90;;
7813;SDS011;3952;48.364;16.022;2022-10-16T00:51:17;41.40;;;23.83;;
7813;SDS011;3952;48.364;16.022;2022-10-16T00:53:49;40.67;;;24.87;;
7813;SDS011;3952;48.364;16.022;2022-10-16T00:56:17;46.60;;;24.90;;
7813;SDS011;3952;48.364;16.022;2022-10-16T00:58:44;25.03;;;22.53;;
7813;SDS011;3952;48.364;16.022;2022-10-16T01:01:13;31.70;;;22.97;;
7813;SDS011;3952;48.364;16.022;2022-10-16T01:03:40;25.87;;;23.30;;
7813;SDS011;3952;48.364;16.022;2022-10-16T01:06:11;31.30;;;25.70;;
7813;SDS011;3952;48.364;16.022;2022-10-16T01:08:54;27.17;;;23.90;;
7813;SDS011;3952;48.364;16.022;2022-10-16T01:11:37;28.30;;;25.30;;
7813;SDS011;3952;48.364;16.022;2022-10-16T01:14:11;28.70;;;25.73;;
7813;SDS011;3952;48.364;16.022;2022-10-16T01:16:48;41.60;;;25.47;;
7813;SDS011;3952;48.364;16.022;2022-10-16T01:19:20;28.00;;;25.10;;
7813;SDS011;3952;48.364;16.022;2022-10-16T01:22:01;27.63;;;24.20;;
7813;SDS011;3952;48.364;16.022;2022-10-16T01:24:31;33.93;;;26.27;;
7813;SDS011;3952;48.364;16.022;2022-10-16T01:27:11;28.97;;;25.50;;
7813;SDS011;3952;48.364;16.022;2022-10-16T01:29:47;31.87;;;25.67;;
7813;SDS011;3952;48.364;16.022;2022-10-16T01:32:19;32.67;;;28.90;;
7813;SDS011;3952;48.364;16.022;2022-10-16T01:34:56;30.47;;;27.23;;
7813;SDS011;3952;48.364;16.022;2022-10-16T01:37:29;32.27;;;27.90;;
7813;SDS011;3952;48.364;16.022;2022-10-16T01:40:02;34.07;;;27.33;;
7813;SDS011;3952;48.364;16.022;2022-10-16T01:42:37;34.60;;;29.13;;
7813;SDS011;3952;48.364;16.022;2022-10-16T01:45:07;34.40;;;28.33;;
7813;SDS011;3952;48.364;16.022;2022-10-16T01:47:38;36.00;;;28.53;;
7813;SDS011;3952;48.364;16.022;2022-10-16T01:50:07;37.17;;;28.57;;
7813;SDS011;3952;48.364;16.022;2022-10-16T01:52:35;54.63;;;31.50;;
7813;SDS011;3952;48.364;16.022;2022-10-16T01:55:06;34.43;;;29.20;;
7813;SDS011;3952;48.364;16.022;2022-10-16T01:57:38;34.27;;;29.37;;
7813;SDS011;3952;48.364;16.022;2022-10-16T02:00:10;34.43;;;29.57;;
7813;SDS011;3952;48.364;16.022;2022-10-16T02:02:40;39.83;;;32.20;;
7813;SDS011;3952;48.364;16.022;2022-10-16T02:05:11;39.70;;;30.90;;
7813;SDS011;3952;48.364;16.022;2022-10-16T02:07:42;42.97;;;31.33;;
7813;SDS011;3952;48.364;16.022;2022-10-16T02:10:09;47.27;;;30.10;;
7813;SDS011;3952;48.364;16.022;2022-10-16T02:12:39;37.47;;;30.13;;
7813;SDS011;3952;48.364;16.022;2022-10-16T02:15:10;41.00;;;31.77;;
7813;SDS011;3952;48.364;16.022;2022-10-16T02:17:38;39.87;;;31.33;;
7813;SDS011;3952;48.364;16.022;2022-10-16T02:20:05;41.17;;;31.80;;
7813;SDS011;3952;48.364;16.022;2022-10-16T02:22:33;49.87;;;32.93;;
7813;SDS011;3952;48.364;16.022;2022-10-16T02:25:04;56.13;;;34.03;;
7813;SDS011;3952;48.364;16.022;2022-10-16T02:27:38;58.37;;;33.90;;
7813;SDS011;3952;48.364;16.022;2022-10-16T02:30:13;54.70;;;31.03;;
7813;SDS011;3952;48.364;16.022;2022-10-16T02:32:46;70.70;;;33.03;;
7813;SDS011;3952;48.364;16.022;2022-10-16T02:35:15;50.63;;;33.23;;
7813;SDS011;3952;48.364;16.022;2022-10-16T02:37:45;44.50;;;31.13;;
7813;SDS011;3952;48.364;16.022;2022-10-16T02:40:14;40.90;;;30.67;;
7813;SDS011;3952;48.364;16.022;2022-10-16T02:42:43;62.07;;;32.20;;
7813;SDS011;3952;48.364;16.022;2022-10-16T02:45:10;60.53;;;33.47;;
7813;SDS011;3952;48.364;16.022;2022-10-16T02:47:38;53.57;;;31.80;;
7813;SDS011;3952;48.364;16.022;2022-10-16T02:50:06;78.97;;;33.73;;
7813;SDS011;3952;48.364;16.022;2022-10-16T02:52:33;51.57;;;34.00;;
7813;SDS011;3952;48.364;16.022;2022-10-16T02:55:01;45.10;;;31.87;;
7813;SDS011;3952;48.364;16.022;2022-10-16T02:57:28;44.73;;;32.20;;
7813;SDS011;3952;48.364;16.022;2022-10-16T02:59:58;90.43;;;33.20;;
7813;SDS011;3952;48.364;16.022;2022-10-16T03:02:25;88.93;;;36.53;;
7813;SDS011;3952;48.364;16.022;2022-10-16T03:04:52;64.30;;;35.63;;
7813;SDS011;3952;48.364;16.022;2022-10-16T03:07:20;42.87;;;32.60;;
7813;SDS011;3952;48.364;16.022;2022-10-16T03:09:47;49.70;;;31.70;;
7813;SDS011;3952;48.364;16.022;2022-10-16T03:12:14;40.47;;;31.10;;
7813;SDS011;3952;48.364;16.022;2022-10-16T03:14:41;42.87;;;33.27;;
7813;SDS011;3952;48.364;16.022;2022-10-16T03:17:10;53.63;;;33.80;;
7813;SDS011;3952;48.364;16.022;2022-10-16T03:19:38;48.47;;;32.77;;
7813;SDS011;3952;48.364;16.022;2022-10-16T03:22:05;39.37;;;31.77;;
7813;SDS011;3952;48.364;16.022;2022-10-16T03:24:32;37.77;;;30.93;;
7813;SDS011;3952;48.364;16.022;2022-10-16T03:26:59;39.20;;;31.90;;
7813;SDS011;3952;48.364;16.022;2022-10-16T03:29:27;34.50;;;29.90;;
7813;SDS011;3952;48.364;16.022;2022-10-16T03:31:54;38.90;;;30.70;;
7813;SDS011;3952;48.364;16.022;2022-10-16T03:34:23;88.53;;;33.50;;
7813;SDS011;3952;48.364;16.022;2022-10-16T03:36:50;54.87;;;32.43;;
7813;SDS011;3952;48.364;16.022;2022-10-16T03:39:18;47.00;;;33.17;;
7813;SDS011;3952;48.364;16.022;2022-10-16T03:41:45;52.63;;;33.77;;
7813;SDS011;3952;48.364;16.022;2022-10-16T03:44:12;69.50;;;34.70;;
7813;SDS011;3952;48.364;16.022;2022-10-16T03:46:39;60.60;;;34.80;;
7813;SDS011;3952;48.364;16.022;2022-10-16T03:49:07;54.87;;;35.00;;
7813;SDS011;3952;48.364;16.022;2022-10-16T03:51:35;87.83;;;36.73;;
7813;SDS011;3952;48.364;16.022;2022-10-16T03:54:02;50.73;;;36.40;;
7813;SDS011;3952;48.364;16.022;2022-10-16T03:56:30;56.73;;;34.63;;
7813;SDS011;3952;48.364;16.022;2022-10-16T03:58:57;84.80;;;37.43;;
7813;SDS011;3952;48.364;16.022;2022-10-16T04:01:24;88.80;;;37.83;;
7813;SDS011;3952;48.364;16.022;2022-10-16T04:03:51;57.67;;;36.00;;
7813;SDS011;3952;48.364;16.022;2022-10-16T04:06:18;179.87;;;41.47;;
7813;SDS011;3952;48.364;16.022;2022-10-16T04:08:47;53.70;;;38.40;;
7813;SDS011;3952;48.364;16.022;2022-10-16T04:11:14;47.13;;;37.60;;
7813;SDS011;3952;48.364;16.022;2022-10-16T04:13:41;81.13;;;38.97;;
7813;SDS011;3952;48.364;16.022;2022-10-16T04:16:09;123.60;;;38.67;;
7813;SDS011;3952;48.364;16.022;2022-10-16T04:18:36;45.53;;;35.47;;
7813;SDS011;3952;48.364;16.022;2022-10-16T04:21:04;113.07;;;37.33;;
7813;SDS011;3952;48.364;16.022;2022-10-16T04:23:32;70.70;;;37.20;;
7813;SDS011;3952;48.364;16.022;2022-10-16T04:26:01;41.43;;;34.70;;
7813;SDS011;3952;48.364;16.022;2022-10-16T04:28:28;60.53;;;36.60;;
7813;SDS011;3952;48.364;16.022;2022-10-16T04:30:55;77.73;;;39.23;;
7813;SDS011;3952;48.364;16.022;2022-10-16T04:33:22;87.30;;;39.00;;
7813;SDS011;3952;48.364;16.022;2022-10-16T04:35:55;90.57;;;39.93;;
7813;SDS011;3952;48.364;16.022;2022-10-16T04:38:23;46.20;;;36.10;;
7813;SDS011;3952;48.364;16.022;2022-10-16T04:40:50;47.20;;;35.90;;
7813;SDS011;3952;48.364;16.022;2022-10-16T04:43:19;69.37;;;37.03;;
7813;SDS011;3952;48.364;16.022;2022-10-16T04:45:47;66.20;;;36.70;;
7813;SDS011;3952;48.364;16.022;2022-10-16T04:48:15;67.07;;;37.43;;
7813;SDS011;3952;48.364;16.022;2022-10-16T04:50:43;64.90;;;36.37;;
7813;SDS011;3952;48.364;16.022;2022-10-16T04:53:10;64.23;;;37.23;;
7813;SDS011;3952;48.364;16.022;2022-10-16T04:55:37;46.27;;;33.37;;
7813;SDS011;3952;48.364;16.022;2022-10-16T04:58:04;45.27;;;33.70;;
7813;SDS011;3952;48.364;16.022;2022-10-16T05:00:33;50.83;;;34.90;;
7813;SDS011;3952;48.364;16.022;2022-10-16T05:03:01;57.47;;;35.77;;
7813;SDS011;3952;48.364;16.022;2022-10-16T05:05:32;56.97;;;35.57;;
7813;SDS011;3952;48.364;16.022;2022-10-16T05:07:59;51.77;;;33.77;;
7813;SDS011;3952;48.364;16.022;2022-10-16T05:10:27;58.90;;;34.60;;
7813;SDS011;3952;48.364;16.022;2022-10-16T05:12:54;48.37;;;33.80;;
7813;SDS011;3952;48.364;16.022;2022-10-16T05:15:21;58.87;;;32.77;;
7813;SDS011;3952;48.364;16.022;2022-10-16T05:17:53;71.50;;;36.13;;
7813;SDS011;3952;48.364;16.022;2022-10-16T05:20:21;100.20;;;37.30;;
7813;SDS011;3952;48.364;16.022;2022-10-16T05:22:48;112.17;;;38.83;;
7813;SDS011;3952;48.364;16.022;2022-10-16T05:25:15;48.93;;;33.07;;
7813;SDS011;3952;48.364;16.022;2022-10-16T05:27:43;83.60;;;35.63;;
7813;SDS011;3952;48.364;16.022;2022-10-16T05:30:13;81.93;;;36.70;;
7813;SDS011;3952;48.364;16.022;2022-10-16T05:32:40;59.23;;;35.23;;
7813;SDS011;3952;48.364;16.022;2022-10-16T05:35:09;77.50;;;37.53;;
7813;SDS011;3952;48.364;16.022;2022-10-16T05:37:36;63.93;;;35.10;;
7813;SDS011;3952;48.364;16.022;2022-10-16T05:40:03;88.83;;;36.03;;
7813;SDS011;3952;48.364;16.022;2022-10-16T05:42:31;71.93;;;35.67;;
7813;SDS011;3952;48.364;16.022;2022-10-16T05:44:58;56.17;;;33.77;;
7813;SDS011;3952;48.364;16.022;2022-10-16T05:47:26;137.33;;;38.90;;
7813;SDS011;3952;48.364;16.022;2022-10-16T05:49:53;90.97;;;34.67;;
7813;SDS011;3952;48.364;16.022;2022-10-16T05:52:22;46.43;;;32.93;;
7813;SDS011;3952;48.364;16.022;2022-10-16T05:54:49;64.43;;;33.70;;
7813;SDS011;3952;48.364;16.022;2022-10-16T05:57:16;68.97;;;34.37;;
7813;SDS011;3952;48.364;16.022;2022-10-16T05:59:43;90.93;;;35.50;;
7813;SDS011;3952;48.364;16.022;2022-10-16T06:02:12;48.60;;;32.80;;
7813;SDS011;3952;48.364;16.022;2022-10-16T06:04:40;71.67;;;35.43;;
7813;SDS011;3952;48.364;16.022;2022-10-16T06:07:07;98.03;;;35.47;;
7813;SDS011;3952;48.364;16.022;2022-10-16T06:09:36;51.20;;;34.03;;
7813;SDS011;3952;48.364;16.022;2022-10-16T06:12:03;157.37;;;40.13;;
7813;SDS011;3952;48.364;16.022;2022-10-16T06:14:30;59.00;;;34.43;;
7813;SDS011;3952;48.364;16.022;2022-10-16T06:16:57;51.50;;;35.43;;
7813;SDS011;3952;48.364;16.022;2022-10-16T06:19:24;51.43;;;34.70;;
7813;SDS011;3952;48.364;16.022;2022-10-16T06:21:52;64.43;;;34.37;;
7813;SDS011;3952;48.364;16.022;2022-10-16T06:24:19;50.27;;;35.40;;
7813;SDS011;3952;48.364;16.022;2022-10-16T06:26:47;64.90;;;36.17;;
7813;SDS011;3952;48.364;16.022;2022-10-16T06:29:15;51.20;;;35.63;;
7813;SDS011;3952;48.364;16.022;2022-10-16T06:31:42;53.63;;;35.83;;
7813;SDS011;3952;48.364;16.022;2022-10-16T06:34:09;46.73;;;34.90;;
7813;SDS011;3952;48.364;16.022;2022-10-16T06:36:37;58.97;;;37.23;;
7813;SDS011;3952;48.364;16.022;2022-10-16T06:39:04;49.83;;;37.03;;
7813;SDS011;3952;48.364;16.022;2022-10-16T06:41:32;50.77;;;35.93;;
7813;SDS011;3952;48.364;16.022;2022-10-16T06:44:04;41.70;;;32.03;;
7813;SDS011;3952;48.364;16.022;2022-10-16T06:46:32;42.57;;;29.93;;
7813;SDS011;3952;48.364;16.022;2022-10-16T06:48:59;53.17;;;32.17;;
7813;SDS011;3952;48.364;16.022;2022-10-16T06:51:27;52.37;;;32.77;;
7813;SDS011;3952;48.364;16.022;2022-10-16T06:53:55;42.40;;;32.50;;
7813;SDS011;3952;48.364;16.022;2022-10-16T06:56:23;63.27;;;34.03;;
7813;SDS011;3952;48.364;16.022;2022-10-16T06:58:52;50.23;;;32.50;;
7813;SDS011;3952;48.364;16.022;2022-10-16T07:01:22;48.57;;;31.67;;
7813;SDS011;3952;48.364;16.022;2022-10-16T07:03:50;46.87;;;33.23;;
7813;SDS011;3952;48.364;16.022;2022-10-16T07:06:18;53.30;;;33.03;;
7813;SDS011;3952;48.364;16.022;2022-10-16T07:08:46;60.30;;;31.10;;
7813;SDS011;3952;48.364;16.022;2022-10-16T07:11:14;73.63;;;32.67;;
7813;SDS011;3952;48.364;16.022;2022-10-16T07:13:43;63.13;;;32.33;;
7813;SDS011;3952;48.364;16.022;2022-10-16T07:16:12;39.57;;;28.93;;
7813;SDS011;3952;48.364;16.022;2022-10-16T07:18:43;33.20;;;26.43;;
7813;SDS011;3952;48.364;16.022;2022-10-16T07:21:12;36.13;;;26.37;;
7813;SDS011;3952;48.364;16.022;2022-10-16T07:23:40;34.63;;;25.37;;
7813;SDS011;3952;48.364;16.022;2022-10-16T07:26:08;36.60;;;25.57;;
7813;SDS011;3952;48.364;16.022;2022-10-16T07:28:36;77.93;;;26.17;;
7813;SDS011;3952;48.364;16.022;2022-10-16T07:31:05;68.30;;;25.03;;
7813;SDS011;3952;48.364;16.022;2022-10-16T07:33:36;35.47;;;24.17;;
7813;SDS011;3952;48.364;16.022;2022-10-16T07:36:06;45.47;;;24.37;;
7813;SDS011;3952;48.364;16.022;2022-10-16T07:38:33;29.13;;;23.47;;
7813;SDS011;3952;48.364;16.022;2022-10-16T07:41:01;30.83;;;22.03;;
7813;SDS011;3952;48.364;16.022;2022-10-16T07:43:30;28.60;;;23.77;;
7813;SDS011;3952;48.364;16.022;2022-10-16T07:45:58;26.80;;;22.47;;
7813;SDS011;3952;48.364;16.022;2022-10-16T07:48:26;29.97;;;22.83;;
7813;SDS011;3952;48.364;16.022;2022-10-16T07:50:56;28.57;;;23.13;;
7813;SDS011;3952;48.364;16.022;2022-10-16T07:53:26;32.73;;;23.50;;
7813;SDS011;3952;48.364;16.022;2022-10-16T07:55:56;48.60;;;24.47;;
7813;SDS011;3952;48.364;16.022;2022-10-16T07:58:24;25.53;;;22.63;;
7813;SDS011;3952;48.364;16.022;2022-10-16T08:00:52;26.40;;;22.77;;
7813;SDS011;3952;48.364;16.022;2022-10-16T08:03:19;26.93;;;22.77;;
7813;SDS011;3952;48.364;16.022;2022-10-16T08:05:46;25.43;;;22.80;;
7813;SDS011;3952;48.364;16.022;2022-10-16T08:08:14;26.17;;;23.20;;
7813;SDS011;3952;48.364;16.022;2022-10-16T08:10:46;28.63;;;22.63;;
7813;SDS011;3952;48.364;16.022;2022-10-16T08:13:14;30.40;;;23.10;;
7813;SDS011;3952;48.364;16.022;2022-10-16T08:15:41;23.97;;;21.37;;
7813;SDS011;3952;48.364;16.022;2022-10-16T08:18:08;23.63;;;21.13;;
7813;SDS011;3952;48.364;16.022;2022-10-16T08:20:36;22.83;;;20.47;;
7813;SDS011;3952;48.364;16.022;2022-10-16T08:23:04;31.87;;;23.97;;
7813;SDS011;3952;48.364;16.022;2022-10-16T08:25:33;27.67;;;24.53;;
7813;SDS011;3952;48.364;16.022;2022-10-16T08:28:04;29.90;;;23.93;;
7813;SDS011;3952;48.364;16.022;2022-10-16T08:30:31;27.80;;;24.03;;
7813;SDS011;3952;48.364;16.022;2022-10-16T08:32:59;43.60;;;31.50;;
7813;SDS011;3952;48.364;16.022;2022-10-16T08:35:26;39.60;;;29.33;;
7813;SDS011;3952;48.364;16.022;2022-10-16T08:37:53;38.47;;;30.60;;
7813;SDS011;3952;48.364;16.022;2022-10-16T08:40:22;45.77;;;31.40;;
7813;SDS011;3952;48.364;16.022;2022-10-16T08:45:51;52.77;;;34.93;;
7813;SDS011;3952;48.364;16.022;2022-10-16T08:48:47;43.33;;;31.77;;
7813;SDS011;3952;48.364;16.022;2022-10-16T08:51:18;55.37;;;34.77;;
7813;SDS011;3952;48.364;16.022;2022-10-16T08:53:49;54.30;;;36.20;;
7813;SDS011;3952;48.364;16.022;2022-10-16T08:56:20;39.07;;;30.93;;
7813;SDS011;3952;48.364;16.022;2022-10-16T08:58:49;36.97;;;29.80;;
7813;SDS011;3952;48.364;16.022;2022-10-16T09:01:18;41.10;;;31.23;;
7813;SDS011;3952;48.364;16.022;2022-10-16T09:03:52;38.93;;;30.13;;
7813;SDS011;3952;48.364;16.022;2022-10-16T09:06:41;43.70;;;31.70;;
7813;SDS011;3952;48.364;16.022;2022-10-16T09:12:15;54.90;;;37.67;;
7813;SDS011;3952;48.364;16.022;2022-10-16T09:14:52;55.17;;;38.70;;
7813;SDS011;3952;48.364;16.022;2022-10-16T09:17:30;50.33;;;35.37;;
7813;SDS011;3952;48.364;16.022;2022-10-16T09:20:15;42.60;;;32.13;;
7813;SDS011;3952;48.364;16.022;2022-10-16T09:22:50;43.20;;;32.20;;
7813;SDS011;3952;48.364;16.022;2022-10-16T09:25:21;37.23;;;29.03;;
7813;SDS011;3952;48.364;16.022;2022-10-16T09:27:49;41.73;;;31.83;;
7813;SDS011;3952;48.364;16.022;2022-10-16T09:30:21;44.33;;;34.13;;
7813;SDS011;3952;48.364;16.022;2022-10-16T09:32:49;48.27;;;33.67;;
7813;SDS011;3952;48.364;16.022;2022-10-16T09:35:19;53.60;;;35.67;;
7813;SDS011;3952;48.364;16.022;2022-10-16T09:37:49;52.00;;;35.40;;
7813;SDS011;3952;48.364;16.022;2022-10-16T09:40:24;47.37;;;34.20;;
7813;SDS011;3952;48.364;16.022;2022-10-16T09:42:56;50.30;;;36.40;;
7813;SDS011;3952;48.364;16.022;2022-10-16T09:45:30;48.70;;;35.50;;
7813;SDS011;3952;48.364;16.022;2022-10-16T09:47:57;48.03;;;35.57;;
7813;SDS011;3952;48.364;16.022;2022-10-16T09:50:28;44.23;;;33.30;;
7813;SDS011;3952;48.364;16.022;2022-10-16T09:53:05;43.07;;;34.23;;
7813;SDS011;3952;48.364;16.022;2022-10-16T09:55:47;50.13;;;35.27;;
7813;SDS011;3952;48.364;16.022;2022-10-16T09:58:15;47.73;;;36.30;;
7813;SDS011;3952;48.364;16.022;2022-10-16T10:00:49;58.23;;;39.47;;
7813;SDS011;3952;48.364;16.022;2022-10-16T10:03:35;55.70;;;39.97;;
7813;SDS011;3952;48.364;16.022;2022-10-16T10:06:06;54.33;;;39.43;;
7813;SDS011;3952;48.364;16.022;2022-10-16T10:09:03;54.93;;;38.53;;
7813;SDS011;3952;48.364;16.022;2022-10-16T10:14:29;59.83;;;40.20;;
7813;SDS011;3952;48.364;16.022;2022-10-16T10:17:10;62.87;;;41.60;;
7813;SDS011;3952;48.364;16.022;2022-10-16T10:19:41;65.43;;;41.90;;
7813;SDS011;3952;48.364;16.022;2022-10-16T10:22:22;94.13;;;53.43;;
7813;SDS011;3952;48.364;16.022;2022-10-16T10:24:55;99.50;;;55.63;;
7813;SDS011;3952;48.364;16.022;2022-10-16T10:27:43;94.60;;;53.50;;
7813;SDS011;3952;48.364;16.022;2022-10-16T10:30:20;83.13;;;50.23;;
7813;SDS011;3952;48.364;16.022;2022-10-16T10:32:55;81.93;;;47.93;;
7813;SDS011;3952;48.364;16.022;2022-10-16T10:35:38;90.90;;;55.67;;
7813;SDS011;3952;48.364;16.022;2022-10-16T10:38:16;79.03;;;46.93;;
7813;SDS011;3952;48.364;16.022;2022-10-16T10:40:54;73.47;;;46.50;;
7813;SDS011;3952;48.364;16.022;2022-10-16T10:43:32;77.03;;;46.83;;
7813;SDS011;3952;48.364;16.022;2022-10-16T10:46:12;78.97;;;46.90;;
7813;SDS011;3952;48.364;16.022;2022-10-16T10:48:50;80.80;;;48.40;;
7813;SDS011;3952;48.364;16.022;2022-10-16T10:51:37;67.83;;;44.63;;
7813;SDS011;3952;48.364;16.022;2022-10-16T10:54:12;70.03;;;45.57;;
7813;SDS011;3952;48.364;16.022;2022-10-16T10:56:47;66.67;;;44.17;;
7813;SDS011;3952;48.364;16.022;2022-10-16T10:59:33;67.23;;;42.50;;
7813;SDS011;3952;48.364;16.022;2022-10-16T11:02:13;61.73;;;42.47;;
7813;SDS011;3952;48.364;16.022;2022-10-16T11:04:58;62.47;;;41.90;;
7813;SDS011;3952;48.364;16.022;2022-10-16T11:07:48;62.83;;;40.57;;
7813;SDS011;3952;48.364;16.022;2022-10-16T11:10:21;59.60;;;41.50;;
7813;SDS011;3952;48.364;16.022;2022-10-16T11:12:52;55.23;;;38.33;;
7813;SDS011;3952;48.364;16.022;2022-10-16T11:15:24;49.50;;;36.47;;
7813;SDS011;3952;48.364;16.022;2022-10-16T11:17:57;62.47;;;40.00;;
7813;SDS011;3952;48.364;16.022;2022-10-16T11:20:31;63.50;;;40.00;;
7813;SDS011;3952;48.364;16.022;2022-10-16T11:23:02;59.93;;;39.10;;
7813;SDS011;3952;48.364;16.022;2022-10-16T11:25:36;55.43;;;39.47;;
7813;SDS011;3952;48.364;16.022;2022-10-16T11:28:08;61.27;;;40.30;;
7813;SDS011;3952;48.364;16.022;2022-10-16T11:30:43;56.13;;;37.97;;
7813;SDS011;3952;48.364;16.022;2022-10-16T11:33:22;54.37;;;38.87;;
7813;SDS011;3952;48.364;16.022;2022-10-16T11:35:59;59.50;;;39.67;;
7813;SDS011;3952;48.364;16.022;2022-10-16T11:38:32;52.20;;;39.50;;
7813;SDS011;3952;48.364;16.022;2022-10-16T11:41:08;55.87;;;41.57;;
7813;SDS011;3952;48.364;16.022;2022-10-16T11:43:45;58.53;;;41.60;;
7813;SDS011;3952;48.364;16.022;2022-10-16T11:46:20;55.60;;;40.60;;
7813;SDS011;3952;48.364;16.022;2022-10-16T11:48:51;52.13;;;38.40;;
7813;SDS011;3952;48.364;16.022;2022-10-16T11:51:29;47.27;;;37.50;;
7813;SDS011;3952;48.364;16.022;2022-10-16T11:54:02;49.93;;;37.80;;
7813;SDS011;3952;48.364;16.022;2022-10-16T11:56:36;45.00;;;35.77;;
7813;SDS011;3952;48.364;16.022;2022-10-16T11:59:07;48.13;;;35.63;;
7813;SDS011;3952;48.364;16.022;2022-10-16T12:01:44;42.57;;;35.27;;
7813;SDS011;3952;48.364;16.022;2022-10-16T12:04:18;40.33;;;33.77;;
7813;SDS011;3952;48.364;16.022;2022-10-16T12:06:55;41.57;;;34.43;;
7813;SDS011;3952;48.364;16.022;2022-10-16T12:09:30;46.27;;;34.33;;
7813;SDS011;3952;48.364;16.022;2022-10-16T12:11:58;43.73;;;33.70;;
7813;SDS011;3952;48.364;16.022;2022-10-16T12:14:33;40.53;;;32.77;;
7813;SDS011;3952;48.364;16.022;2022-10-16T12:19:57;38.30;;;31.87;;
7813;SDS011;3952;48.364;16.022;2022-10-16T12:22:28;42.33;;;32.67;;
7813;SDS011;3952;48.364;16.022;2022-10-16T12:24:57;39.80;;;32.57;;
7813;SDS011;3952;48.364;16.022;2022-10-16T12:27:27;49.13;;;34.50;;
7813;SDS011;3952;48.364;16.022;2022-10-16T12:29:56;37.10;;;31.33;;
7813;SDS011;3952;48.364;16.022;2022-10-16T12:32:28;42.77;;;32.00;;
7813;SDS011;3952;48.364;16.022;2022-10-16T12:34:58;36.70;;;31.43;;
7813;SDS011;3952;48.364;16.022;2022-10-16T12:37:28;39.40;;;32.93;;
7813;SDS011;3952;48.364;16.022;2022-10-16T12:39:59;40.07;;;32.00;;
7813;SDS011;3952;48.364;16.022;2022-10-16T12:42:39;43.23;;;33.07;;
7813;SDS011;3952;48.364;16.022;2022-10-16T12:45:22;37.43;;;30.30;;
7813;SDS011;3952;48.364;16.022;2022-10-16T12:47:53;33.90;;;29.57;;
7813;SDS011;3952;48.364;16.022;2022-10-16T12:50:25;36.40;;;30.20;;
7813;SDS011;3952;48.364;16.022;2022-10-16T12:52:58;39.07;;;29.80;;
7813;SDS011;3952;48.364;16.022;2022-10-16T12:55:27;35.87;;;30.10;;
7813;SDS011;3952;48.364;16.022;2022-10-16T12:58:05;34.03;;;29.47;;
7813;SDS011;3952;48.364;16.022;2022-10-16T13:00:42;32.47;;;28.53;;
7813;SDS011;3952;48.364;16.022;2022-10-16T13:06:17;28.40;;;24.10;;
7813;SDS011;3952;48.364;16.022;2022-10-16T13:09:05;26.93;;;24.10;;
7813;SDS011;3952;48.364;16.022;2022-10-16T13:11:47;28.27;;;24.97;;
7813;SDS011;3952;48.364;16.022;2022-10-16T13:17:28;28.03;;;24.30;;
7813;SDS011;3952;48.364;16.022;2022-10-16T13:20:05;27.33;;;24.37;;
7813;SDS011;3952;48.364;16.022;2022-10-16T13:22:44;29.90;;;25.00;;
7813;SDS011;3952;48.364;16.022;2022-10-16T13:25:26;28.73;;;25.63;;
7813;SDS011;3952;48.364;16.022;2022-10-16T13:28:03;27.33;;;24.37;;
7813;SDS011;3952;48.364;16.022;2022-10-16T13:30:34;27.63;;;23.90;;
7813;SDS011;3952;48.364;16.022;2022-10-16T13:33:06;25.87;;;23.00;;
7813;SDS011;3952;48.364;16.022;2022-10-16T13:35:46;26.50;;;23.23;;
7813;SDS011;3952;48.364;16.022;2022-10-16T13:38:16;25.60;;;22.90;;
7813;SDS011;3952;48.364;16.022;2022-10-16T13:40:50;26.23;;;23.03;;
7813;SDS011;3952;48.364;16.022;2022-10-16T13:43:20;25.17;;;22.57;;
7813;SDS011;3952;48.364;16.022;2022-10-16T13:45:57;26.63;;;23.83;;
7813;SDS011;3952;48.364;16.022;2022-10-16T13:48:27;26.90;;;24.30;;
7813;SDS011;3952;48.364;16.022;2022-10-16T13:50:58;26.73;;;23.93;;
7813;SDS011;3952;48.364;16.022;2022-10-16T13:53:30;26.47;;;23.87;;
7813;SDS011;3952;48.364;16.022;2022-10-16T13:56:00;28.77;;;25.97;;
7813;SDS011;3952;48.364;16.022;2022-10-16T13:58:30;27.27;;;24.67;;
7813;SDS011;3952;48.364;16.022;2022-10-16T14:00:58;27.40;;;24.60;;
7813;SDS011;3952;48.364;16.022;2022-10-16T14:03:27;30.60;;;26.20;;
7813;SDS011;3952;48.364;16.022;2022-10-16T14:05:56;27.40;;;24.70;;
7813;SDS011;3952;48.364;16.022;2022-10-16T14:08:27;29.20;;;26.30;;
7813;SDS011;3952;48.364;16.022;2022-10-16T14:10:56;32.60;;;26.77;;
7813;SDS011;3952;48.364;16.022;2022-10-16T14:13:29;29.17;;;26.27;;
7813;SDS011;3952;48.364;16.022;2022-10-16T14:15:59;29.83;;;26.73;;
7813;SDS011;3952;48.364;16.022;2022-10-16T14:18:32;33.07;;;28.90;;
7813;SDS011;3952;48.364;16.022;2022-10-16T14:21:04;31.57;;;28.13;;
7813;SDS011;3952;48.364;16.022;2022-10-16T14:23:34;35.57;;;30.33;;
7813;SDS011;3952;48.364;16.022;2022-10-16T14:29:03;35.03;;;30.60;;
7813;SDS011;3952;48.364;16.022;2022-10-16T14:31:40;35.20;;;31.40;;
7813;SDS011;3952;48.364;16.022;2022-10-16T14:34:24;36.37;;;32.50;;
7813;SDS011;3952;48.364;16.022;2022-10-16T14:36:53;36.00;;;32.10;;
7813;SDS011;3952;48.364;16.022;2022-10-16T14:39:21;35.90;;;31.97;;
7813;SDS011;3952;48.364;16.022;2022-10-16T14:41:51;36.23;;;32.37;;
7813;SDS011;3952;48.364;16.022;2022-10-16T14:44:26;40.10;;;32.17;;
7813;SDS011;3952;48.364;16.022;2022-10-16T14:46:56;36.53;;;32.33;;
7813;SDS011;3952;48.364;16.022;2022-10-16T14:49:24;37.50;;;32.17;;
7813;SDS011;3952;48.364;16.022;2022-10-16T14:51:53;35.73;;;31.73;;
7813;SDS011;3952;48.364;16.022;2022-10-16T14:54:20;37.23;;;32.27;;
7813;SDS011;3952;48.364;16.022;2022-10-16T14:56:48;36.53;;;32.37;;
7813;SDS011;3952;48.364;16.022;2022-10-16T14:59:18;37.63;;;33.33;;
7813;SDS011;3952;48.364;16.022;2022-10-16T15:01:51;38.90;;;33.33;;
7813;SDS011;3952;48.364;16.022;2022-10-16T15:04:18;38.47;;;33.17;;
7813;SDS011;3952;48.364;16.022;2022-10-16T15:06:46;38.87;;;32.60;;
7813;SDS011;3952;48.364;16.022;2022-10-16T15:09:13;38.40;;;32.83;;
7813;SDS011;3952;48.364;16.022;2022-10-16T15:11:41;39.67;;;32.67;;
7813;SDS011;3952;48.364;16.022;2022-10-16T15:14:10;40.20;;;32.83;;
7813;SDS011;3952;48.364;16.022;2022-10-16T15:16:39;41.27;;;33.60;;